sensor_id;sensor_type;location;lat;lon;timestamp;P1;durP1;ratioP1;P2;durP2;ratioP2
23676;SDS011;31493;49.058;12.190;2022-09-12T00:01:08;6.60;;;5.82;;
23676;SDS011;31493;49.058;12.190;2022-09-12T00:03:36;9.13;;;6.60;;
23676;SDS011;31493;49.058;12.190;2022-09-12T00:06:08;12.88;;;7.55;;
23676;SDS011;31493;49.058;12.190;2022-09-12T00:08:36;10.23;;;8.57;;
23676;SDS011;31493;49.058;12.190;2022-09-12T00:11:04;9.85;;;8.85;;
23676;SDS011;31493;49.058;12.190;2022-09-12T00:13:34;8.95;;;7.90;;
23676;SDS011;31493;49.058;12.190;2022-09-12T00:18:29;9.25;;;8.30;;
23676;SDS011;31493;49.058;12.190;2022-09-12T00:21:00;10.60;;;8.02;;
23676;SDS011;31493;49.058;12.190;2022-09-12T00:23:29;7.60;;;6.80;;
23676;SDS011;31493;49.058;12.190;2022-09-12T00:25:56;10.93;;;8.25;;
23676;SDS011;31493;49.058;12.190;2022-09-12T00:28:23;10.13;;;8.35;;
23676;SDS011;31493;49.058;12.190;2022-09-12T00:30:52;9.75;;;8.50;;
23676;SDS011;31493;49.058;12.190;2022-09-12T00:33:19;10.15;;;9.05;;
23676;SDS011;31493;49.058;12.190;2022-09-12T00:35:47;10.93;;;8.25;;
23676;SDS011;31493;49.058;12.190;2022-09-12T00:38:17;11.43;;;7.88;;
23676;SDS011;31493;49.058;12.190;2022-09-12T00:40:46;9.70;;;8.65;;
23676;SDS011;31493;49.058;12.190;2022-09-12T00:43:14;10.05;;;7.70;;
23676;SDS011;31493;49.058;12.190;2022-09-12T00:46:03;9.80;;;7.22;;
23676;SDS011;31493;49.058;12.190;2022-09-12T00:48:38;8.35;;;7.28;;
23676;SDS011;31493;49.058;12.190;2022-09-12T00:51:07;9.63;;;8.00;;
23676;SDS011;31493;49.058;12.190;2022-09-12T00:53:35;8.53;;;7.50;;
23676;SDS011;31493;49.058;12.190;2022-09-12T00:56:04;9.75;;;7.90;;
23676;SDS011;31493;49.058;12.190;2022-09-12T00:58:34;8.45;;;7.65;;
23676;SDS011;31493;49.058;12.190;2022-09-12T01:01:06;9.38;;;7.57;;
23676;SDS011;31493;49.058;12.190;2022-09-12T01:03:33;12.00;;;9.77;;
23676;SDS011;31493;49.058;12.190;2022-09-12T01:06:01;8.20;;;7.40;;
23676;SDS011;31493;49.058;12.190;2022-09-12T01:08:34;8.82;;;7.18;;
23676;SDS011;31493;49.058;12.190;2022-09-12T01:11:03;10.52;;;6.32;;
23676;SDS011;31493;49.058;12.190;2022-09-12T01:13:32;7.13;;;6.38;;
23676;SDS011;31493;49.058;12.190;2022-09-12T01:16:01;10.35;;;7.28;;
23676;SDS011;31493;49.058;12.190;2022-09-12T01:18:34;8.15;;;7.35;;
23676;SDS011;31493;49.058;12.190;2022-09-12T01:21:13;10.57;;;7.72;;
23676;SDS011;31493;49.058;12.190;2022-09-12T01:23:59;10.95;;;7.25;;
23676;SDS011;31493;49.058;12.190;2022-09-12T01:30:00;10.18;;;9.18;;
23676;SDS011;31493;49.058;12.190;2022-09-12T01:32:39;11.77;;;9.60;;
23676;SDS011;31493;49.058;12.190;2022-09-12T01:35:18;12.85;;;10.52;;
23676;SDS011;31493;49.058;12.190;2022-09-12T01:37:51;12.90;;;9.20;;
23676;SDS011;31493;49.058;12.190;2022-09-12T01:40:28;10.57;;;9.10;;
23676;SDS011;31493;49.058;12.190;2022-09-12T01:43:02;11.27;;;8.60;;
23676;SDS011;31493;49.058;12.190;2022-09-12T01:45:37;11.82;;;9.30;;
23676;SDS011;31493;49.058;12.190;2022-09-12T01:48:12;13.07;;;10.18;;
23676;SDS011;31493;49.058;12.190;2022-09-12T01:50:46;12.18;;;10.52;;
23676;SDS011;31493;49.058;12.190;2022-09-12T01:53:19;12.02;;;10.82;;
23676;SDS011;31493;49.058;12.190;2022-09-12T01:55:50;12.20;;;11.00;;
23676;SDS011;31493;49.058;12.190;2022-09-12T01:58:22;12.07;;;10.73;;
23676;SDS011;31493;49.058;12.190;2022-09-12T02:00:54;10.68;;;9.57;;
23676;SDS011;31493;49.058;12.190;2022-09-12T02:03:29;11.07;;;9.57;;
23676;SDS011;31493;49.058;12.190;2022-09-12T02:06:00;12.15;;;10.05;;
23676;SDS011;31493;49.058;12.190;2022-09-12T02:08:33;12.25;;;11.02;;
23676;SDS011;31493;49.058;12.190;2022-09-12T02:11:05;11.77;;;9.80;;
23676;SDS011;31493;49.058;12.190;2022-09-12T02:13:35;19.30;;;10.20;;
23676;SDS011;31493;49.058;12.190;2022-09-12T02:16:08;13.43;;;10.50;;
23676;SDS011;31493;49.058;12.190;2022-09-12T02:18:39;11.82;;;10.57;;
23676;SDS011;31493;49.058;12.190;2022-09-12T02:21:11;15.40;;;10.48;;
23676;SDS011;31493;49.058;12.190;2022-09-12T02:23:38;13.15;;;11.88;;
23676;SDS011;31493;49.058;12.190;2022-09-12T02:26:11;19.25;;;11.63;;
23676;SDS011;31493;49.058;12.190;2022-09-12T02:28:42;12.85;;;11.55;;
23676;SDS011;31493;49.058;12.190;2022-09-12T02:31:11;13.15;;;11.80;;
23676;SDS011;31493;49.058;12.190;2022-09-12T02:33:47;13.57;;;11.32;;
23676;SDS011;31493;49.058;12.190;2022-09-12T02:36:19;13.73;;;11.65;;
23676;SDS011;31493;49.058;12.190;2022-09-12T02:38:57;14.02;;;12.50;;
23676;SDS011;31493;49.058;12.190;2022-09-12T02:41:25;14.45;;;10.05;;
23676;SDS011;31493;49.058;12.190;2022-09-12T02:43:52;11.13;;;8.70;;
23676;SDS011;31493;49.058;12.190;2022-09-12T02:46:20;14.43;;;8.07;;
23676;SDS011;31493;49.058;12.190;2022-09-12T02:48:52;12.55;;;8.00;;
23676;SDS011;31493;49.058;12.190;2022-09-12T02:51:20;12.27;;;9.20;;
23676;SDS011;31493;49.058;12.190;2022-09-12T02:53:48;23.48;;;10.13;;
23676;SDS011;31493;49.058;12.190;2022-09-12T02:56:17;11.88;;;9.35;;
23676;SDS011;31493;49.058;12.190;2022-09-12T02:58:49;12.32;;;10.98;;
23676;SDS011;31493;49.058;12.190;2022-09-12T03:01:20;12.95;;;10.77;;
23676;SDS011;31493;49.058;12.190;2022-09-12T03:04:02;15.43;;;11.82;;
23676;SDS011;31493;49.058;12.190;2022-09-12T03:06:54;13.07;;;11.73;;
23676;SDS011;31493;49.058;12.190;2022-09-12T03:09:34;15.90;;;12.30;;
23676;SDS011;31493;49.058;12.190;2022-09-12T03:12:09;18.85;;;13.50;;
23676;SDS011;31493;49.058;12.190;2022-09-12T03:17:54;16.08;;;14.35;;
23676;SDS011;31493;49.058;12.190;2022-09-12T03:20:34;15.90;;;13.35;;
23676;SDS011;31493;49.058;12.190;2022-09-12T03:23:13;18.40;;;13.05;;
23676;SDS011;31493;49.058;12.190;2022-09-12T03:25:51;13.90;;;12.45;;
23676;SDS011;31493;49.058;12.190;2022-09-12T03:28:22;13.98;;;12.48;;
23676;SDS011;31493;49.058;12.190;2022-09-12T03:30:49;13.75;;;12.25;;
23676;SDS011;31493;49.058;12.190;2022-09-12T03:35:47;14.75;;;11.70;;
23676;SDS011;31493;49.058;12.190;2022-09-12T03:38:15;17.30;;;15.45;;
23676;SDS011;31493;49.058;12.190;2022-09-12T03:40:42;19.70;;;15.57;;
23676;SDS011;31493;49.058;12.190;2022-09-12T03:43:11;21.23;;;16.52;;
23676;SDS011;31493;49.058;12.190;2022-09-12T03:45:38;20.65;;;17.00;;
23676;SDS011;31493;49.058;12.190;2022-09-12T03:48:05;16.98;;;13.85;;
23676;SDS011;31493;49.058;12.190;2022-09-12T03:50:32;17.67;;;13.05;;
23676;SDS011;31493;49.058;12.190;2022-09-12T03:53:01;14.05;;;12.25;;
23676;SDS011;31493;49.058;12.190;2022-09-12T03:55:28;12.60;;;11.30;;
23676;SDS011;31493;49.058;12.190;2022-09-12T03:57:55;14.70;;;13.10;;
23676;SDS011;31493;49.058;12.190;2022-09-12T04:00:22;16.13;;;13.73;;
23676;SDS011;31493;49.058;12.190;2022-09-12T04:02:52;14.10;;;12.52;;
23676;SDS011;31493;49.058;12.190;2022-09-12T04:05:21;12.45;;;11.25;;
23676;SDS011;31493;49.058;12.190;2022-09-12T04:07:49;14.48;;;11.82;;
23676;SDS011;31493;49.058;12.190;2022-09-12T04:10:17;12.40;;;11.10;;
23676;SDS011;31493;49.058;12.190;2022-09-12T04:12:44;13.38;;;11.98;;
23676;SDS011;31493;49.058;12.190;2022-09-12T04:15:11;23.08;;;12.38;;
23676;SDS011;31493;49.058;12.190;2022-09-12T04:17:38;13.40;;;9.88;;
23676;SDS011;31493;49.058;12.190;2022-09-12T04:20:05;19.08;;;9.68;;
23676;SDS011;31493;49.058;12.190;2022-09-12T04:22:33;29.08;;;9.32;;
23676;SDS011;31493;49.058;12.190;2022-09-12T04:25:00;35.47;;;9.23;;
23676;SDS011;31493;49.058;12.190;2022-09-12T04:27:28;9.85;;;7.43;;
23676;SDS011;31493;49.058;12.190;2022-09-12T04:29:55;7.55;;;6.05;;
23676;SDS011;31493;49.058;12.190;2022-09-12T04:32:24;6.00;;;5.50;;
23676;SDS011;31493;49.058;12.190;2022-09-12T04:34:51;8.07;;;6.47;;
23676;SDS011;31493;49.058;12.190;2022-09-12T04:37:18;11.02;;;6.47;;
23676;SDS011;31493;49.058;12.190;2022-09-12T04:39:45;10.30;;;7.40;;
23676;SDS011;31493;49.058;12.190;2022-09-12T04:42:14;11.07;;;8.48;;
23676;SDS011;31493;49.058;12.190;2022-09-12T04:44:42;10.95;;;8.27;;
23676;SDS011;31493;49.058;12.190;2022-09-12T04:47:09;11.93;;;8.68;;
23676;SDS011;31493;49.058;12.190;2022-09-12T04:49:36;11.23;;;9.20;;
23676;SDS011;31493;49.058;12.190;2022-09-12T04:52:03;10.90;;;9.05;;
23676;SDS011;31493;49.058;12.190;2022-09-12T04:54:30;9.77;;;8.68;;
23676;SDS011;31493;49.058;12.190;2022-09-12T04:56:58;12.40;;;9.15;;
23676;SDS011;31493;49.058;12.190;2022-09-12T04:59:25;10.70;;;8.40;;
23676;SDS011;31493;49.058;12.190;2022-09-12T05:01:53;10.38;;;7.97;;
23676;SDS011;31493;49.058;12.190;2022-09-12T05:04:20;10.35;;;7.80;;
23676;SDS011;31493;49.058;12.190;2022-09-12T05:06:47;9.50;;;8.52;;
23676;SDS011;31493;49.058;12.190;2022-09-12T05:09:14;9.25;;;8.00;;
23676;SDS011;31493;49.058;12.190;2022-09-12T05:11:42;7.82;;;7.13;;
23676;SDS011;31493;49.058;12.190;2022-09-12T05:14:10;10.70;;;7.70;;
23676;SDS011;31493;49.058;12.190;2022-09-12T05:16:37;12.93;;;7.18;;
23676;SDS011;31493;49.058;12.190;2022-09-12T05:19:08;9.75;;;7.05;;
23676;SDS011;31493;49.058;12.190;2022-09-12T05:21:36;7.90;;;6.38;;
23676;SDS011;31493;49.058;12.190;2022-09-12T05:24:04;14.30;;;6.13;;
23676;SDS011;31493;49.058;12.190;2022-09-12T05:26:31;9.43;;;7.05;;
23676;SDS011;31493;49.058;12.190;2022-09-12T05:28:58;22.95;;;7.95;;
23676;SDS011;31493;49.058;12.190;2022-09-12T05:31:26;16.90;;;8.15;;
23676;SDS011;31493;49.058;12.190;2022-09-12T05:33:54;66.50;;;8.77;;
23676;SDS011;31493;49.058;12.190;2022-09-12T05:36:23;98.50;;;8.98;;
23676;SDS011;31493;49.058;12.190;2022-09-12T05:38:51;85.07;;;9.80;;
23676;SDS011;31493;49.058;12.190;2022-09-12T05:41:20;56.03;;;8.30;;
23676;SDS011;31493;49.058;12.190;2022-09-12T05:43:50;48.05;;;8.75;;
23676;SDS011;31493;49.058;12.190;2022-09-12T05:48:46;50.03;;;8.52;;
23676;SDS011;31493;49.058;12.190;2022-09-12T05:51:15;43.83;;;7.82;;
23676;SDS011;31493;49.058;12.190;2022-09-12T05:53:45;48.65;;;8.52;;
23676;SDS011;31493;49.058;12.190;2022-09-12T05:56:14;49.92;;;7.47;;
23676;SDS011;31493;49.058;12.190;2022-09-12T05:58:44;58.13;;;8.57;;
23676;SDS011;31493;49.058;12.190;2022-09-12T06:03:41;39.90;;;7.38;;
23676;SDS011;31493;49.058;12.190;2022-09-12T06:06:09;40.33;;;7.57;;
23676;SDS011;31493;49.058;12.190;2022-09-12T06:11:07;30.35;;;6.68;;
23676;SDS011;31493;49.058;12.190;2022-09-12T06:13:36;15.38;;;7.55;;
23676;SDS011;31493;49.058;12.190;2022-09-12T06:16:05;17.67;;;6.47;;
23676;SDS011;31493;49.058;12.190;2022-09-12T06:18:35;20.70;;;7.45;;
23676;SDS011;31493;49.058;12.190;2022-09-12T06:21:03;29.70;;;7.72;;
23676;SDS011;31493;49.058;12.190;2022-09-12T06:23:32;18.05;;;7.35;;
23676;SDS011;31493;49.058;12.190;2022-09-12T06:25:59;49.35;;;7.30;;
23676;SDS011;31493;49.058;12.190;2022-09-12T06:28:28;31.10;;;6.88;;
23676;SDS011;31493;49.058;12.190;2022-09-12T06:33:27;31.02;;;7.88;;
23676;SDS011;31493;49.058;12.190;2022-09-12T06:35:54;16.13;;;7.15;;
23676;SDS011;31493;49.058;12.190;2022-09-12T06:38:21;25.25;;;7.25;;
23676;SDS011;31493;49.058;12.190;2022-09-12T06:40:48;20.15;;;8.20;;
23676;SDS011;31493;49.058;12.190;2022-09-12T06:43:16;28.20;;;9.23;;
23676;SDS011;31493;49.058;12.190;2022-09-12T06:45:48;8.68;;;7.85;;
23676;SDS011;31493;49.058;12.190;2022-09-12T06:48:15;9.63;;;8.63;;
23676;SDS011;31493;49.058;12.190;2022-09-12T06:50:42;9.35;;;8.15;;
23676;SDS011;31493;49.058;12.190;2022-09-12T06:53:09;9.35;;;8.45;;
23676;SDS011;31493;49.058;12.190;2022-09-12T06:55:36;10.23;;;8.73;;
23676;SDS011;31493;49.058;12.190;2022-09-12T06:58:03;9.80;;;8.68;;
23676;SDS011;31493;49.058;12.190;2022-09-12T07:00:31;11.70;;;8.98;;
23676;SDS011;31493;49.058;12.190;2022-09-12T07:02:59;9.27;;;8.38;;
23676;SDS011;31493;49.058;12.190;2022-09-12T07:05:26;11.63;;;8.88;;
23676;SDS011;31493;49.058;12.190;2022-09-12T07:07:53;10.32;;;9.32;;
23676;SDS011;31493;49.058;12.190;2022-09-12T07:10:20;11.63;;;9.48;;
23676;SDS011;31493;49.058;12.190;2022-09-12T07:12:47;9.35;;;8.45;;
23676;SDS011;31493;49.058;12.190;2022-09-12T07:15:14;11.52;;;9.20;;
23676;SDS011;31493;49.058;12.190;2022-09-12T07:17:42;10.93;;;8.63;;
23676;SDS011;31493;49.058;12.190;2022-09-12T07:20:10;9.65;;;8.70;;
23676;SDS011;31493;49.058;12.190;2022-09-12T07:22:37;10.27;;;8.95;;
23676;SDS011;31493;49.058;12.190;2022-09-12T07:25:06;9.53;;;8.63;;
23676;SDS011;31493;49.058;12.190;2022-09-12T07:27:33;8.68;;;7.82;;
23676;SDS011;31493;49.058;12.190;2022-09-12T07:30:02;8.75;;;7.85;;
23676;SDS011;31493;49.058;12.190;2022-09-12T07:32:30;9.93;;;8.60;;
23676;SDS011;31493;49.058;12.190;2022-09-12T07:34:57;10.43;;;8.63;;
23676;SDS011;31493;49.058;12.190;2022-09-12T07:37:25;14.15;;;9.98;;
23676;SDS011;31493;49.058;12.190;2022-09-12T07:39:56;10.63;;;9.40;;
23676;SDS011;31493;49.058;12.190;2022-09-12T07:42:24;10.50;;;9.50;;
23676;SDS011;31493;49.058;12.190;2022-09-12T07:44:51;9.15;;;8.32;;
23676;SDS011;31493;49.058;12.190;2022-09-12T07:47:18;9.27;;;8.38;;
23676;SDS011;31493;49.058;12.190;2022-09-12T07:49:45;8.77;;;7.88;;
23676;SDS011;31493;49.058;12.190;2022-09-12T07:52:12;10.93;;;9.70;;
23676;SDS011;31493;49.058;12.190;2022-09-12T07:54:41;8.93;;;7.82;;
23676;SDS011;31493;49.058;12.190;2022-09-12T07:59:35;8.57;;;7.78;;
23676;SDS011;31493;49.058;12.190;2022-09-12T08:02:09;9.63;;;7.82;;
23676;SDS011;31493;49.058;12.190;2022-09-12T08:04:38;9.73;;;7.35;;
23676;SDS011;31493;49.058;12.190;2022-09-12T08:07:06;13.97;;;8.33;;
23676;SDS011;31493;49.058;12.190;2022-09-12T08:09:33;9.88;;;8.40;;
23676;SDS011;31493;49.058;12.190;2022-09-12T08:12:02;8.48;;;7.68;;
23676;SDS011;31493;49.058;12.190;2022-09-12T08:14:29;13.02;;;7.63;;
23676;SDS011;31493;49.058;12.190;2022-09-12T08:16:56;10.50;;;7.78;;
23676;SDS011;31493;49.058;12.190;2022-09-12T08:19:23;10.63;;;8.45;;
23676;SDS011;31493;49.058;12.190;2022-09-12T08:21:50;8.57;;;7.72;;
23676;SDS011;31493;49.058;12.190;2022-09-12T08:24:17;9.23;;;8.32;;
23676;SDS011;31493;49.058;12.190;2022-09-12T08:26:44;9.52;;;8.55;;
23676;SDS011;31493;49.058;12.190;2022-09-12T08:29:14;12.23;;;8.27;;
23676;SDS011;31493;49.058;12.190;2022-09-12T08:31:42;8.50;;;7.70;;
23676;SDS011;31493;49.058;12.190;2022-09-12T08:34:09;8.57;;;7.68;;
23676;SDS011;31493;49.058;12.190;2022-09-12T08:36:36;10.93;;;8.30;;
23676;SDS011;31493;49.058;12.190;2022-09-12T08:39:04;10.15;;;8.45;;
23676;SDS011;31493;49.058;12.190;2022-09-12T08:41:34;8.98;;;8.13;;
23676;SDS011;31493;49.058;12.190;2022-09-12T08:47:13;9.57;;;8.45;;
23676;SDS011;31493;49.058;12.190;2022-09-12T08:49:49;9.95;;;8.95;;
23676;SDS011;31493;49.058;12.190;2022-09-12T08:52:24;10.02;;;7.75;;
23676;SDS011;31493;49.058;12.190;2022-09-12T08:54:55;9.02;;;8.13;;
23676;SDS011;31493;49.058;12.190;2022-09-12T08:57:23;8.02;;;7.28;;
23676;SDS011;31493;49.058;12.190;2022-09-12T08:59:51;9.77;;;8.82;;
23676;SDS011;31493;49.058;12.190;2022-09-12T09:04:55;8.95;;;7.88;;
23676;SDS011;31493;49.058;12.190;2022-09-12T09:07:45;8.10;;;7.40;;
23676;SDS011;31493;49.058;12.190;2022-09-12T09:10:27;11.30;;;8.10;;
23676;SDS011;31493;49.058;12.190;2022-09-12T09:13:04;9.48;;;8.15;;
23676;SDS011;31493;49.058;12.190;2022-09-12T09:16:06;9.98;;;8.40;;
23676;SDS011;31493;49.058;12.190;2022-09-12T09:18:39;10.52;;;8.77;;
23676;SDS011;31493;49.058;12.190;2022-09-12T09:21:14;11.40;;;10.30;;
23676;SDS011;31493;49.058;12.190;2022-09-12T09:23:48;12.25;;;10.82;;
23676;SDS011;31493;49.058;12.190;2022-09-12T09:26:21;14.27;;;12.77;;
23676;SDS011;31493;49.058;12.190;2022-09-12T09:28:54;16.02;;;13.27;;
23676;SDS011;31493;49.058;12.190;2022-09-12T09:31:29;14.57;;;12.90;;
23676;SDS011;31493;49.058;12.190;2022-09-12T09:34:05;17.05;;;14.65;;
23676;SDS011;31493;49.058;12.190;2022-09-12T09:36:40;17.15;;;13.60;;
23676;SDS011;31493;49.058;12.190;2022-09-12T09:39:18;16.90;;;14.18;;
23676;SDS011;31493;49.058;12.190;2022-09-12T09:41:55;17.52;;;15.15;;
23676;SDS011;31493;49.058;12.190;2022-09-12T09:44:36;15.02;;;13.40;;
23676;SDS011;31493;49.058;12.190;2022-09-12T09:47:05;16.27;;;13.60;;
23676;SDS011;31493;49.058;12.190;2022-09-12T09:49:35;17.50;;;13.57;;
23676;SDS011;31493;49.058;12.190;2022-09-12T09:52:02;15.95;;;13.70;;
23676;SDS011;31493;49.058;12.190;2022-09-12T09:54:33;15.13;;;12.95;;
23676;SDS011;31493;49.058;12.190;2022-09-12T09:57:08;15.48;;;13.13;;
23676;SDS011;31493;49.058;12.190;2022-09-12T10:00:22;14.10;;;12.20;;
23676;SDS011;31493;49.058;12.190;2022-09-12T10:03:03;12.80;;;11.43;;
23676;SDS011;31493;49.058;12.190;2022-09-12T10:05:45;22.27;;;16.90;;
23676;SDS011;31493;49.058;12.190;2022-09-12T10:08:21;18.92;;;16.30;;
23676;SDS011;31493;49.058;12.190;2022-09-12T10:10:54;17.35;;;15.48;;
23676;SDS011;31493;49.058;12.190;2022-09-12T10:13:24;16.38;;;14.20;;
23676;SDS011;31493;49.058;12.190;2022-09-12T10:15:58;15.23;;;13.13;;
23676;SDS011;31493;49.058;12.190;2022-09-12T10:18:35;18.02;;;14.20;;
23676;SDS011;31493;49.058;12.190;2022-09-12T10:23:58;14.80;;;12.82;;
23676;SDS011;31493;49.058;12.190;2022-09-12T10:26:30;21.55;;;16.02;;
23676;SDS011;31493;49.058;12.190;2022-09-12T10:29:02;14.95;;;12.63;;
23676;SDS011;31493;49.058;12.190;2022-09-12T10:31:40;14.77;;;11.63;;
23676;SDS011;31493;49.058;12.190;2022-09-12T10:34:20;13.80;;;12.27;;
23676;SDS011;31493;49.058;12.190;2022-09-12T10:36:51;13.77;;;10.60;;
23676;SDS011;31493;49.058;12.190;2022-09-12T10:39:24;12.25;;;10.57;;
23676;SDS011;31493;49.058;12.190;2022-09-12T10:41:52;16.15;;;10.93;;
23676;SDS011;31493;49.058;12.190;2022-09-12T10:44:23;12.30;;;10.77;;
23676;SDS011;31493;49.058;12.190;2022-09-12T10:46:52;13.20;;;11.80;;
23676;SDS011;31493;49.058;12.190;2022-09-12T10:49:25;12.60;;;10.82;;
23676;SDS011;31493;49.058;12.190;2022-09-12T10:51:56;12.80;;;10.35;;
23676;SDS011;31493;49.058;12.190;2022-09-12T10:54:41;11.13;;;9.68;;
23676;SDS011;31493;49.058;12.190;2022-09-12T10:57:17;15.85;;;9.70;;
23676;SDS011;31493;49.058;12.190;2022-09-12T11:00:07;11.20;;;9.40;;
23676;SDS011;31493;49.058;12.190;2022-09-12T11:03:01;13.52;;;10.07;;
23676;SDS011;31493;49.058;12.190;2022-09-12T11:05:43;12.35;;;10.10;;
23676;SDS011;31493;49.058;12.190;2022-09-12T11:08:20;10.80;;;9.65;;
23676;SDS011;31493;49.058;12.190;2022-09-12T11:11:07;9.63;;;8.70;;
23676;SDS011;31493;49.058;12.190;2022-09-12T11:13:50;9.45;;;7.68;;
23676;SDS011;31493;49.058;12.190;2022-09-12T11:16:24;7.97;;;7.18;;
23676;SDS011;31493;49.058;12.190;2022-09-12T11:19:01;20.63;;;8.75;;
23676;SDS011;31493;49.058;12.190;2022-09-12T11:21:50;13.60;;;7.75;;
23676;SDS011;31493;49.058;12.190;2022-09-12T11:24:31;10.88;;;7.57;;
23676;SDS011;31493;49.058;12.190;2022-09-12T11:27:23;14.73;;;8.45;;
23676;SDS011;31493;49.058;12.190;2022-09-12T11:30:01;10.52;;;7.85;;
23676;SDS011;31493;49.058;12.190;2022-09-12T11:32:41;8.40;;;7.13;;
23676;SDS011;31493;49.058;12.190;2022-09-12T11:35:18;7.53;;;6.82;;
23676;SDS011;31493;49.058;12.190;2022-09-12T11:38:07;11.68;;;7.03;;
23676;SDS011;31493;49.058;12.190;2022-09-12T11:40:55;8.02;;;6.30;;
23676;SDS011;31493;49.058;12.190;2022-09-12T11:43:29;7.63;;;5.80;;
23676;SDS011;31493;49.058;12.190;2022-09-12T11:46:04;7.57;;;6.53;;
23676;SDS011;31493;49.058;12.190;2022-09-12T11:48:37;8.20;;;6.20;;
23676;SDS011;31493;49.058;12.190;2022-09-12T11:51:14;6.60;;;5.18;;
23676;SDS011;31493;49.058;12.190;2022-09-12T11:53:46;8.25;;;6.18;;
23676;SDS011;31493;49.058;12.190;2022-09-12T11:56:25;6.75;;;5.22;;
23676;SDS011;31493;49.058;12.190;2022-09-12T11:58:53;7.28;;;5.15;;
23676;SDS011;31493;49.058;12.190;2022-09-12T12:01:26;5.85;;;4.50;;
23676;SDS011;31493;49.058;12.190;2022-09-12T12:03:57;5.88;;;4.72;;
23676;SDS011;31493;49.058;12.190;2022-09-12T12:06:32;5.93;;;4.35;;
23676;SDS011;31493;49.058;12.190;2022-09-12T12:09:06;6.40;;;5.05;;
23676;SDS011;31493;49.058;12.190;2022-09-12T12:11:36;7.25;;;5.68;;
23676;SDS011;31493;49.058;12.190;2022-09-12T12:14:12;6.82;;;4.88;;
23676;SDS011;31493;49.058;12.190;2022-09-12T12:16:41;9.23;;;6.63;;
23676;SDS011;31493;49.058;12.190;2022-09-12T12:19:19;5.50;;;5.00;;
23676;SDS011;31493;49.058;12.190;2022-09-12T12:21:56;7.70;;;5.85;;
23676;SDS011;31493;49.058;12.190;2022-09-12T12:24:33;8.15;;;5.70;;
23676;SDS011;31493;49.058;12.190;2022-09-12T12:27:01;7.65;;;5.65;;
23676;SDS011;31493;49.058;12.190;2022-09-12T12:29:40;8.25;;;4.90;;
23676;SDS011;31493;49.058;12.190;2022-09-12T12:32:18;5.40;;;4.90;;
23676;SDS011;31493;49.058;12.190;2022-09-12T12:34:47;6.05;;;5.25;;
23676;SDS011;31493;49.058;12.190;2022-09-12T12:40:22;6.95;;;4.95;;
23676;SDS011;31493;49.058;12.190;2022-09-12T12:46:06;4.43;;;3.88;;
23676;SDS011;31493;49.058;12.190;2022-09-12T12:51:36;5.95;;;4.75;;
23676;SDS011;31493;49.058;12.190;2022-09-12T12:57:01;6.95;;;4.85;;
23676;SDS011;31493;49.058;12.190;2022-09-12T12:59:30;4.55;;;4.10;;
23676;SDS011;31493;49.058;12.190;2022-09-12T13:01:58;5.57;;;4.28;;
23676;SDS011;31493;49.058;12.190;2022-09-12T13:04:27;6.82;;;4.22;;
23676;SDS011;31493;49.058;12.190;2022-09-12T13:06:58;3.70;;;3.38;;
23676;SDS011;31493;49.058;12.190;2022-09-12T13:09:29;4.20;;;3.25;;
23676;SDS011;31493;49.058;12.190;2022-09-12T13:12:03;6.18;;;3.97;;
23676;SDS011;31493;49.058;12.190;2022-09-12T13:14:33;4.03;;;3.50;;
23676;SDS011;31493;49.058;12.190;2022-09-12T13:17:03;5.47;;;4.78;;
23676;SDS011;31493;49.058;12.190;2022-09-12T13:19:35;6.80;;;4.75;;
23676;SDS011;31493;49.058;12.190;2022-09-12T13:22:03;4.95;;;4.47;;
23676;SDS011;31493;49.058;12.190;2022-09-12T13:24:32;6.40;;;4.00;;
23676;SDS011;31493;49.058;12.190;2022-09-12T13:26:59;6.47;;;3.88;;
23676;SDS011;31493;49.058;12.190;2022-09-12T13:29:28;5.10;;;4.50;;
23676;SDS011;31493;49.058;12.190;2022-09-12T13:31:56;6.13;;;4.10;;
23676;SDS011;31493;49.058;12.190;2022-09-12T13:34:25;4.32;;;3.92;;
23676;SDS011;31493;49.058;12.190;2022-09-12T13:37:05;5.32;;;3.17;;
23676;SDS011;31493;49.058;12.190;2022-09-12T13:39:45;5.17;;;4.00;;
23676;SDS011;31493;49.058;12.190;2022-09-12T13:45:17;5.55;;;4.13;;
23676;SDS011;31493;49.058;12.190;2022-09-12T13:47:47;4.05;;;3.53;;
23676;SDS011;31493;49.058;12.190;2022-09-12T13:50:17;4.68;;;3.58;;
23676;SDS011;31493;49.058;12.190;2022-09-12T13:52:48;5.65;;;4.30;;
23676;SDS011;31493;49.058;12.190;2022-09-12T13:55:27;5.82;;;3.80;;
23676;SDS011;31493;49.058;12.190;2022-09-12T13:57:56;6.53;;;3.50;;
23676;SDS011;31493;49.058;12.190;2022-09-12T14:00:28;4.93;;;3.55;;
23676;SDS011;31493;49.058;12.190;2022-09-12T14:02:56;4.43;;;3.58;;
23676;SDS011;31493;49.058;12.190;2022-09-12T14:05:43;4.60;;;3.65;;
23676;SDS011;31493;49.058;12.190;2022-09-12T14:08:13;4.22;;;3.60;;
23676;SDS011;31493;49.058;12.190;2022-09-12T14:10:42;6.47;;;3.55;;
23676;SDS011;31493;49.058;12.190;2022-09-12T14:13:14;5.22;;;3.40;;
23676;SDS011;31493;49.058;12.190;2022-09-12T14:15:46;5.97;;;3.70;;
23676;SDS011;31493;49.058;12.190;2022-09-12T14:18:22;3.90;;;3.30;;
23676;SDS011;31493;49.058;12.190;2022-09-12T14:20:51;4.55;;;3.40;;
23676;SDS011;31493;49.058;12.190;2022-09-12T14:23:23;4.28;;;3.80;;
23676;SDS011;31493;49.058;12.190;2022-09-12T14:25:53;4.80;;;3.75;;
23676;SDS011;31493;49.058;12.190;2022-09-12T14:28:21;5.63;;;3.65;;
23676;SDS011;31493;49.058;12.190;2022-09-12T14:31:00;7.97;;;3.45;;
23676;SDS011;31493;49.058;12.190;2022-09-12T14:33:32;15.73;;;3.50;;
23676;SDS011;31493;49.058;12.190;2022-09-12T14:36:15;9.40;;;3.95;;
23676;SDS011;31493;49.058;12.190;2022-09-12T14:38:47;13.75;;;3.75;;
23676;SDS011;31493;49.058;12.190;2022-09-12T14:41:20;4.63;;;3.85;;
23676;SDS011;31493;49.058;12.190;2022-09-12T14:43:50;4.47;;;3.35;;
23676;SDS011;31493;49.058;12.190;2022-09-12T14:46:23;11.90;;;3.88;;
23676;SDS011;31493;49.058;12.190;2022-09-12T14:48:53;4.57;;;3.85;;
23676;SDS011;31493;49.058;12.190;2022-09-12T14:51:30;5.20;;;3.42;;
23676;SDS011;31493;49.058;12.190;2022-09-12T14:54:00;11.52;;;4.22;;
23676;SDS011;31493;49.058;12.190;2022-09-12T14:56:38;4.78;;;3.75;;
23676;SDS011;31493;49.058;12.190;2022-09-12T14:59:25;12.90;;;4.65;;
23676;SDS011;31493;49.058;12.190;2022-09-12T15:04:52;6.10;;;3.97;;
23676;SDS011;31493;49.058;12.190;2022-09-12T15:07:23;5.40;;;4.13;;
23676;SDS011;31493;49.058;12.190;2022-09-12T15:09:57;6.28;;;3.97;;
23676;SDS011;31493;49.058;12.190;2022-09-12T15:12:25;6.63;;;3.53;;
23676;SDS011;31493;49.058;12.190;2022-09-12T15:14:52;5.13;;;4.00;;
23676;SDS011;31493;49.058;12.190;2022-09-12T15:17:26;4.43;;;3.80;;
23676;SDS011;31493;49.058;12.190;2022-09-12T15:19:53;5.47;;;3.78;;
23676;SDS011;31493;49.058;12.190;2022-09-12T15:22:20;5.45;;;3.88;;
23676;SDS011;31493;49.058;12.190;2022-09-12T15:24:50;6.75;;;4.18;;
23676;SDS011;31493;49.058;12.190;2022-09-12T15:27:17;6.68;;;4.05;;
23676;SDS011;31493;49.058;12.190;2022-09-12T15:29:44;10.23;;;4.00;;
23676;SDS011;31493;49.058;12.190;2022-09-12T15:32:12;4.28;;;3.60;;
23676;SDS011;31493;49.058;12.190;2022-09-12T15:34:50;8.77;;;3.85;;
23676;SDS011;31493;49.058;12.190;2022-09-12T15:37:17;5.22;;;4.30;;
23676;SDS011;31493;49.058;12.190;2022-09-12T15:39:45;9.75;;;4.43;;